Jeletkezz be e-mail címeddel, vagy csatlakozz hozzánk.

Repülési napló #4275

Pilóta
SHA034
Járatszám
SHA855
Járattípus
Utasszállító
Indulás
Liszt Ferenc International Airport (LHBP) [31]
Érkezés
Turin Airport (LIMF)
Repülőgép
B737-800 (HA-INQ)
Dátum
2020.09.25.
Menetidő
01:41:39
Utasok
145
Távolság
500nm
Hálózat
Offline
Státusz
Elfogadva
Járat költségvetés
Teljes bevétel:
(145 utas * € 469.00)
€ 68 005.00
Üzemanyagköltség:
(4536 kg * € 0.72/kg)
€ 3 265.92
Pilóta fizetése: € 302.50
Egyéb kiadások: € 17 681.30

Útvonal

GILEP DCT SASAL DCT ABTAN DCT DETSA/N0450F350 DCT ATPED M984 LUSIL

Részletes napló

Fuel Used
4536 kg
Start Fuel
7828 kg
End Fuel
3292 kg
Földetérés
-252 fpm
Oldalszél komponens
12.83 KT (jobb)
Hátszél komponens
11.15 KT

Részletes napló megtekintése

Pilóta fizetés részletek

Repült órák
€ 352.50
(01.41 * € 250.00)
Pontos érkezés
€ 50.00
(6 min)
Hátszeles leszállás
€ -100.00
(11.15 KT)
Bővebben: Bónuszok és levonások

Megjegyzések

Írta Megjegyzés
István Tibold Érdekes ez a 11,15 KT hátszél, mikor az a METAR volt: LIMF 251620Z 05004KT 010V080 9999 SCT120 15/08 Q0996
Csaba Kánfor Ejnye-bejnye :D

Route Map